createdAt,value
2019-02-25T00:01:52.260Z,100746.02
2019-02-25T00:04:19.074Z,100745.48
2019-02-25T00:06:47.640Z,100746.70
2019-02-25T00:09:14.488Z,100750.94
2019-02-25T00:11:41.252Z,100745.20
2019-02-25T00:14:07.986Z,100741.89
2019-02-25T00:16:34.850Z,100749.89
2019-02-25T00:19:01.665Z,100745.63
2019-02-25T00:21:28.502Z,100748.33
2019-02-25T00:23:55.306Z,100752.90
2019-02-25T00:26:22.161Z,100750.32
2019-02-25T00:28:48.946Z,100749.43
2019-02-25T00:31:15.916Z,100742.48
2019-02-25T00:33:43.242Z,100748.55
2019-02-25T00:36:10.202Z,100748.05
2019-02-25T00:38:37.358Z,100743.64
2019-02-25T00:41:04.560Z,100739.61
2019-02-25T00:43:31.939Z,100741.26
2019-02-25T00:45:58.692Z,100747.67
2019-02-25T00:48:25.470Z,100743.94
2019-02-25T00:50:52.289Z,100741.87
2019-02-25T00:53:19.191Z,100741.14
2019-02-25T00:55:46.324Z,100741.14
2019-02-25T00:58:13.265Z,100738.48
2019-02-25T01:00:40.147Z,100732.53
2019-02-25T01:03:07.029Z,100738.31
2019-02-25T01:05:33.921Z,100741.32
2019-02-25T01:08:00.718Z,100732.84
2019-02-25T01:10:27.992Z,100718.81
2019-02-25T01:12:55.159Z,100724.89
2019-02-25T01:15:22.090Z,100724.38
2019-02-25T01:17:49.844Z,100720.66
2019-02-25T01:20:16.994Z,100718.89
2019-02-25T01:22:43.902Z,100724.16
2019-02-25T01:25:13.134Z,100722.94
2019-02-25T01:27:39.896Z,100726.64
2019-02-25T01:30:10.548Z,100729.43
2019-02-25T01:32:37.281Z,100727.78
2019-02-25T01:35:08.029Z,100722.92
2019-02-25T01:37:34.774Z,100719.94
2019-02-25T01:40:01.695Z,100713.42
2019-02-25T01:42:28.445Z,100722.20
2019-02-25T01:44:55.199Z,100710.02
2019-02-25T01:47:22.318Z,100718.30
2019-02-25T01:49:49.085Z,100718.09
2019-02-25T01:52:15.802Z,100705.69
2019-02-25T01:54:43.078Z,100704.12
2019-02-25T01:57:09.845Z,100706.58
2019-02-25T01:59:36.633Z,100716.48
2019-02-25T02:02:06.109Z,100710.80
2019-02-25T02:04:32.905Z,100709.02
2019-02-25T02:07:00.120Z,100708.50
2019-02-25T02:09:26.947Z,100706.66
2019-02-25T02:11:53.846Z,100701.51
2019-02-25T02:14:20.992Z,100701.00
2019-02-25T02:16:48.252Z,100704.77
2019-02-25T02:19:15.380Z,100706.50
2019-02-25T02:21:42.523Z,100703.41
2019-02-25T02:24:09.335Z,100697.42
2019-02-25T02:26:36.152Z,100699.48
2019-02-25T02:29:02.909Z,100693.52
2019-02-25T02:31:29.654Z,100697.94
2019-02-25T02:33:56.446Z,100707.86
2019-02-25T02:36:23.188Z,100704.45
2019-02-25T02:38:49.920Z,100704.73
2019-02-25T02:41:16.882Z,100706.67
2019-02-25T02:43:43.810Z,100714.87
2019-02-25T02:46:40.785Z,100715.75
2019-02-25T02:49:07.667Z,100716.38
2019-02-25T02:51:34.458Z,100720.91
2019-02-25T02:54:01.277Z,100718.63
2019-02-25T02:56:28.141Z,100724.12
2019-02-25T02:58:55.620Z,100728.33
2019-02-25T03:01:22.596Z,100732.44
2019-02-25T03:03:49.590Z,100723.23
2019-02-25T03:06:16.349Z,100725.39
2019-02-25T03:08:43.090Z,100716.04
2019-02-25T03:11:10.035Z,100721.55
2019-02-25T03:13:38.692Z,100721.96
2019-02-25T03:16:05.575Z,100722.48
2019-02-25T03:18:32.343Z,100722.60
2019-02-25T03:20:59.263Z,100722.96
2019-02-25T03:23:26.005Z,100716.62
2019-02-25T03:25:53.109Z,100712.70
2019-02-25T03:28:19.859Z,100713.28
2019-02-25T03:30:46.670Z,100720.34
2019-02-25T03:33:13.389Z,100726.45
2019-02-25T03:35:40.192Z,100727.98
2019-02-25T03:38:07.633Z,100730.25
2019-02-25T03:40:34.950Z,100729.53
2019-02-25T03:43:02.046Z,100736.47
2019-02-25T03:45:28.891Z,100735.70
2019-02-25T03:47:56.048Z,100744.29
2019-02-25T03:50:22.861Z,100741.88
2019-02-25T03:52:49.591Z,100746.08
2019-02-25T03:55:19.636Z,100745.89
2019-02-25T03:57:46.663Z,100750.80
2019-02-25T04:00:16.747Z,100756.83
2019-02-25T04:02:43.504Z,100754.69
2019-02-25T04:05:10.683Z,100758.94
2019-02-25T04:07:37.641Z,100762.89
2019-02-25T04:10:08.284Z,100757.58
2019-02-25T04:12:35.463Z,100766.78
2019-02-25T04:15:07.480Z,100761.77
2019-02-25T04:17:34.300Z,100764.09
2019-02-25T04:20:01.384Z,100765.05
2019-02-25T04:22:28.190Z,100765.63
2019-02-25T04:24:55.132Z,100756.22
2019-02-25T04:27:22.080Z,100762.87
2019-02-25T04:29:48.889Z,100765.67
2019-02-25T04:32:16.687Z,100769.22
2019-02-25T04:34:43.830Z,100762.37
2019-02-25T04:37:10.712Z,100764.91
2019-02-25T04:39:37.494Z,100763.10
2019-02-25T04:42:04.315Z,100756.46
2019-02-25T04:44:31.903Z,100759.77
2019-02-25T04:46:58.971Z,100759.87
2019-02-25T04:49:25.667Z,100759.36
2019-02-25T04:51:55.302Z,100750.84
2019-02-25T04:54:22.556Z,100749.92
2019-02-25T04:56:49.446Z,100749.07
2019-02-25T04:59:16.212Z,100750.02
2019-02-25T05:01:43.040Z,100742.45
2019-02-25T05:04:10.167Z,100741.81
2019-02-25T05:06:37.339Z,100736.70
2019-02-25T05:09:04.502Z,100742.22
2019-02-25T05:11:32.870Z,100741.91
2019-02-25T05:13:59.821Z,100746.48
2019-02-25T05:16:26.592Z,100744.59
2019-02-25T05:18:53.448Z,100744.25
2019-02-25T05:21:20.287Z,100747.41
2019-02-25T05:23:47.082Z,100743.24
2019-02-25T05:26:13.933Z,100746.16
2019-02-25T05:28:40.985Z,100745.66
2019-02-25T05:31:07.954Z,100747.04
2019-02-25T05:33:37.004Z,100749.95
2019-02-25T05:36:03.803Z,100747.77
2019-02-25T05:38:31.155Z,100753.80
2019-02-25T05:40:58.608Z,100750.09
2019-02-25T05:43:25.761Z,100746.24
2019-02-25T05:45:52.471Z,100751.60
2019-02-25T05:48:19.618Z,100760.14
2019-02-25T05:50:46.650Z,100745.78
2019-02-25T05:53:13.423Z,100749.19
2019-02-25T05:55:40.313Z,100749.14
2019-02-25T05:58:07.948Z,100747.81
2019-02-25T06:00:35.715Z,100740.62
2019-02-25T06:03:02.627Z,100737.41
2019-02-25T06:05:29.793Z,100733.80
2019-02-25T06:07:56.543Z,100738.03
2019-02-25T06:10:23.382Z,100743.13
2019-02-25T06:12:50.278Z,100743.45
2019-02-25T06:15:18.655Z,100737.85
2019-02-25T06:17:45.583Z,100739.03
2019-02-25T06:20:15.099Z,100753.64
2019-02-25T06:22:41.936Z,100748.60
2019-02-25T06:25:13.104Z,100759.06
2019-02-25T06:27:40.071Z,100760.42
2019-02-25T06:30:21.690Z,100757.03
2019-02-25T06:32:48.491Z,100759.09
2019-02-25T06:35:15.266Z,100759.88
2019-02-25T06:37:42.014Z,100760.58
2019-02-25T06:40:15.919Z,100770.25
2019-02-25T06:42:42.911Z,100754.83
2019-02-25T06:45:34.285Z,100756.70
2019-02-25T06:48:01.088Z,100758.51
2019-02-25T06:50:28.237Z,100769.14
2019-02-25T06:52:55.162Z,100763.65
2019-02-25T06:55:21.941Z,100772.05
2019-02-25T06:57:49.090Z,100762.49
2019-02-25T07:00:20.327Z,100768.56
2019-02-25T07:02:47.534Z,100762.76
2019-02-25T07:05:20.140Z,100761.38
2019-02-25T07:08:05.636Z,100763.44
2019-02-25T07:10:32.488Z,100772.28
2019-02-25T07:13:01.781Z,100765.50
2019-02-25T07:15:33.919Z,100766.84
2019-02-25T07:18:08.779Z,100765.55
2019-02-25T07:20:40.411Z,100766.81
2019-02-25T07:23:14.731Z,100770.20
2019-02-25T07:25:43.735Z,100766.09
2019-02-25T07:28:15.817Z,100767.84
2019-02-25T07:31:03.881Z,100766.31
2019-02-25T07:33:38.825Z,100767.34
2019-02-25T07:36:23.863Z,100764.36
2019-02-25T07:38:53.002Z,100764.80
2019-02-25T07:41:22.767Z,100765.75
2019-02-25T07:43:51.677Z,100759.79
2019-02-25T07:46:20.418Z,100754.77
2019-02-25T07:48:52.099Z,100760.66
2019-02-25T07:51:21.198Z,100758.01
2019-02-25T07:54:06.720Z,100753.09
2019-02-25T07:56:51.908Z,100747.60
2019-02-25T07:59:20.923Z,100747.00
2019-02-25T08:01:52.578Z,100734.90
2019-02-25T08:04:19.650Z,100728.52
2019-02-25T08:06:48.498Z,100741.51
2019-02-25T08:09:17.146Z,100736.30
2019-02-25T08:11:52.050Z,100740.91
2019-02-25T08:14:23.695Z,100737.91
2019-02-25T08:17:01.234Z,100735.79
2019-02-25T08:19:29.895Z,100738.78
2019-02-25T08:22:01.540Z,100735.54
2019-02-25T08:24:30.963Z,100736.39
2019-02-25T08:27:00.554Z,100737.69
2019-02-25T08:29:34.908Z,100734.98
2019-02-25T08:32:01.688Z,100738.14
2019-02-25T08:34:30.354Z,100739.77
2019-02-25T08:37:39.973Z,100736.47
2019-02-25T08:40:22.937Z,100743.34
2019-02-25T08:42:53.959Z,100738.22
2019-02-25T08:45:31.871Z,100744.98
2019-02-25T08:48:02.695Z,100744.23
2019-02-25T08:50:29.986Z,100744.66
2019-02-25T08:52:56.769Z,100734.82
2019-02-25T08:55:23.969Z,100734.19
2019-02-25T08:57:50.712Z,100733.05
2019-02-25T09:00:17.619Z,100747.18
2019-02-25T09:02:44.452Z,100741.40
2019-02-25T09:05:13.161Z,100732.47
2019-02-25T09:07:39.978Z,100734.84
2019-02-25T09:10:10.730Z,100745.61
2019-02-25T09:12:37.927Z,100743.69
2019-02-25T09:15:12.663Z,100740.12
2019-02-25T09:17:42.014Z,100745.52
2019-02-25T09:20:08.868Z,100748.36
2019-02-25T09:22:36.323Z,100748.59
2019-02-25T09:25:10.735Z,100753.52
2019-02-25T09:27:37.635Z,100752.91
2019-02-25T09:30:12.507Z,100741.75
2019-02-25T09:32:39.552Z,100751.77
2019-02-25T09:35:06.697Z,100752.33
2019-02-25T09:37:33.876Z,100752.05
2019-02-25T09:40:00.600Z,100750.81
2019-02-25T09:42:27.440Z,100754.33
2019-02-25T09:44:54.608Z,100751.44
2019-02-25T09:47:21.501Z,100755.66
2019-02-25T09:49:48.254Z,100752.25
2019-02-25T09:52:15.061Z,100745.55
2019-02-25T09:54:41.884Z,100746.98
2019-02-25T09:57:09.004Z,100749.48
2019-02-25T09:59:35.752Z,100742.67
2019-02-25T10:02:03.021Z,100743.24
2019-02-25T10:04:29.777Z,100749.25
2019-02-25T10:07:02.515Z,100748.47
2019-02-25T10:09:30.028Z,100754.52
2019-02-25T10:11:57.849Z,100752.64
2019-02-25T10:14:24.651Z,100752.64
2019-02-25T10:16:51.506Z,100757.30
2019-02-25T10:19:18.657Z,100755.95
2019-02-25T10:21:45.685Z,100759.48
2019-02-25T10:24:12.794Z,100756.22
2019-02-25T10:26:45.823Z,100764.39
2019-02-25T10:29:12.497Z,100759.48
2019-02-25T10:31:41.627Z,100761.14
2019-02-25T10:34:10.216Z,100763.31
2019-02-25T10:36:37.357Z,100764.67
2019-02-25T10:39:09.071Z,100763.55
2019-02-25T10:41:36.651Z,100765.47
2019-02-25T10:44:06.546Z,100759.20
2019-02-25T10:46:34.481Z,100755.64
2019-02-25T10:49:11.216Z,100753.98
2019-02-25T10:51:31.009Z,100748.21
2019-02-25T10:53:58.471Z,100743.05
2019-02-25T10:56:30.915Z,100741.40
2019-02-25T10:58:59.701Z,100733.18
2019-02-25T11:01:26.791Z,100738.87
2019-02-25T11:03:54.280Z,100730.89
2019-02-25T11:06:21.277Z,100723.69
2019-02-25T11:08:50.279Z,100724.16
2019-02-25T11:11:23.195Z,100723.62
2019-02-25T11:13:51.741Z,100725.88
2019-02-25T11:16:21.999Z,100717.38
2019-02-25T11:18:50.702Z,100707.81
2019-02-25T11:21:18.420Z,100699.28
2019-02-25T11:23:47.004Z,100702.20
2019-02-25T11:26:14.157Z,100703.23
2019-02-25T11:28:43.270Z,100698.30
2019-02-25T11:31:09.958Z,100700.78
2019-02-25T11:33:36.747Z,100700.59
2019-02-25T11:36:03.505Z,100699.25
2019-02-25T11:38:35.437Z,100697.22
2019-02-25T11:41:02.476Z,100692.06
2019-02-25T11:43:30.553Z,100684.84
2019-02-25T11:45:57.439Z,100678.17
2019-02-25T11:48:24.182Z,100689.92
2019-02-25T11:50:50.976Z,100685.00
2019-02-25T11:53:17.741Z,100691.25
2019-02-25T11:55:44.562Z,100695.63
2019-02-25T11:58:11.816Z,100694.18
2019-02-25T12:00:39.915Z,100683.20
2019-02-25T12:03:07.151Z,100683.12
2019-02-25T12:05:33.965Z,100679.42
2019-02-25T12:08:03.279Z,100679.03
2019-02-25T12:10:30.026Z,100680.09
2019-02-25T12:12:56.783Z,100682.30
2019-02-25T12:15:23.865Z,100691.77
2019-02-25T12:17:50.654Z,100683.29
2019-02-25T12:20:18.991Z,100683.35
2019-02-25T12:22:46.041Z,100686.34
2019-02-25T12:25:20.198Z,100679.20
2019-02-25T12:27:46.927Z,100678.37
2019-02-25T12:30:25.131Z,100667.20
2019-02-25T12:32:51.984Z,100665.61
2019-02-25T12:35:18.940Z,100667.80
2019-02-25T12:37:45.688Z,100664.08
2019-02-25T12:40:14.462Z,100664.15
2019-02-25T12:42:44.382Z,100661.26
2019-02-25T12:45:13.475Z,100658.50
2019-02-25T12:47:40.497Z,100655.38
2019-02-25T12:50:15.274Z,100661.61
2019-02-25T12:52:42.387Z,100665.80
2019-02-25T12:55:13.908Z,100655.11
2019-02-25T12:57:40.679Z,100651.41
2019-02-25T13:00:17.709Z,100643.94
2019-02-25T13:02:44.894Z,100641.45
2019-02-25T13:05:20.687Z,100636.14
2019-02-25T13:07:47.934Z,100628.93
2019-02-25T13:10:16.333Z,100627.98
2019-02-25T13:12:43.545Z,100628.23
2019-02-25T13:15:15.864Z,100623.38
2019-02-25T13:17:42.648Z,100622.47
2019-02-25T13:20:12.007Z,100624.91
2019-02-25T13:22:38.802Z,100615.91
2019-02-25T13:25:19.454Z,100615.18
2019-02-25T13:27:46.732Z,100609.01
2019-02-25T13:30:15.926Z,100609.41
2019-02-25T13:32:42.753Z,100609.39
2019-02-25T13:35:12.297Z,100611.44
2019-02-25T13:37:39.424Z,100611.62
2019-02-25T13:40:13.723Z,100610.68
2019-02-25T13:42:40.859Z,100602.47
2019-02-25T13:45:21.047Z,100607.27
2019-02-25T13:47:47.897Z,100602.58
2019-02-25T13:50:17.756Z,100600.77
2019-02-25T13:55:17.811Z,100597.70
2019-02-25T13:57:46.212Z,100589.72
2019-02-25T14:00:25.239Z,100590.58
2019-02-25T14:02:52.492Z,100591.55
2019-02-25T14:05:19.380Z,100582.47
2019-02-25T14:07:48.118Z,100588.38
2019-02-25T14:10:18.502Z,100581.56
2019-02-25T14:12:45.947Z,100587.70
2019-02-25T14:15:17.657Z,100590.63
2019-02-25T14:17:44.525Z,100583.81
2019-02-25T14:20:15.495Z,100583.06
2019-02-25T14:22:42.353Z,100582.65
2019-02-25T14:25:12.608Z,100575.67
2019-02-25T14:27:39.740Z,100579.31
2019-02-25T14:30:13.916Z,100580.14
2019-02-25T14:32:40.734Z,100569.28
2019-02-25T14:35:08.381Z,100569.95
2019-02-25T14:37:35.269Z,100570.17
2019-02-25T14:40:08.684Z,100561.41
2019-02-25T14:42:36.345Z,100561.89
2019-02-25T14:45:09.432Z,100561.06
2019-02-25T14:47:39.120Z,100548.89
2019-02-25T14:50:14.442Z,100546.28
2019-02-25T14:52:42.571Z,100539.67
2019-02-25T14:55:11.200Z,100530.99
2019-02-25T14:57:40.761Z,100535.09
2019-02-25T15:00:23.370Z,100531.99
2019-02-25T15:02:50.243Z,100538.71
2019-02-25T15:05:19.293Z,100533.26
2019-02-25T15:07:46.749Z,100523.08
2019-02-25T15:10:14.431Z,100522.45
2019-02-25T15:12:41.312Z,100527.84
2019-02-25T15:15:14.521Z,100514.45
2019-02-25T15:17:42.010Z,100515.16
2019-02-25T15:20:16.347Z,100517.19
2019-02-25T15:22:42.481Z,100512.08
2019-02-25T15:25:18.737Z,100515.81
2019-02-25T15:27:46.631Z,100517.64
2019-02-25T15:30:28.292Z,100511.91
2019-02-25T15:32:58.417Z,100506.59
2019-02-25T15:35:28.786Z,100505.52
2019-02-25T15:37:55.485Z,100501.48
2019-02-25T15:40:25.098Z,100502.36
2019-02-25T15:43:10.390Z,100500.71
2019-02-25T15:45:42.399Z,100500.00
2019-02-25T15:48:13.659Z,100499.18
2019-02-25T15:50:44.066Z,100499.82
2019-02-25T15:53:11.587Z,100497.67
2019-02-25T15:55:41.841Z,100502.24
2019-02-25T15:58:08.947Z,100497.33
2019-02-25T16:00:36.834Z,100500.16
2019-02-25T16:03:06.200Z,100504.13
2019-02-25T16:05:36.287Z,100500.14
2019-02-25T16:08:03.124Z,100492.64
2019-02-25T16:10:29.901Z,100490.59
2019-02-25T16:12:57.825Z,100488.28
2019-02-25T16:15:25.657Z,100486.97
2019-02-25T16:17:52.654Z,100482.66
2019-02-25T16:20:21.074Z,100491.44
2019-02-25T16:22:47.924Z,100488.48
2019-02-25T16:25:23.057Z,100491.80
2019-02-25T16:27:52.199Z,100492.59
2019-02-25T16:30:21.417Z,100494.87
2019-02-25T16:32:49.624Z,100493.82
2019-02-25T16:35:17.387Z,100497.95
2019-02-25T16:37:44.462Z,100499.06
2019-02-25T16:40:19.455Z,100497.97
2019-02-25T16:42:46.494Z,100493.91
2019-02-25T16:45:28.541Z,100495.16
2019-02-25T16:47:54.759Z,100487.97
2019-02-25T16:50:23.234Z,100496.52
2019-02-25T16:52:50.148Z,100497.14
2019-02-25T16:55:25.064Z,100508.92
2019-02-25T16:57:52.281Z,100508.39
2019-02-25T17:00:25.265Z,100511.13
2019-02-25T17:02:52.933Z,100509.77
2019-02-25T17:05:20.373Z,100511.41
2019-02-25T17:07:48.894Z,100513.60
2019-02-25T17:10:26.376Z,100516.59
2019-02-25T17:12:54.177Z,100519.88
2019-02-25T17:15:21.691Z,100523.12
2019-02-25T17:17:48.540Z,100520.12
2019-02-25T17:20:18.058Z,100520.66
2019-02-25T17:22:45.143Z,100527.50
2019-02-25T17:25:13.205Z,100528.59
2019-02-25T17:27:40.045Z,100533.74
2019-02-25T17:30:20.239Z,100531.83
2019-02-25T17:32:48.385Z,100541.63
2019-02-25T17:35:19.004Z,100541.92
2019-02-25T17:37:46.433Z,100545.45
2019-02-25T17:40:17.733Z,100541.64
2019-02-25T17:42:47.115Z,100550.36
2019-02-25T17:45:22.457Z,100550.88
2019-02-25T17:47:58.287Z,100544.03
2019-02-25T17:50:20.650Z,100552.45
2019-02-25T17:52:48.227Z,100551.89
2019-02-25T17:55:25.423Z,100545.31
2019-02-25T17:57:54.265Z,100548.48
2019-02-25T18:00:42.409Z,100551.70
2019-02-25T18:03:09.486Z,100549.23
2019-02-25T18:05:40.800Z,100557.87
2019-02-25T18:08:10.544Z,100561.34
2019-02-25T18:10:37.350Z,100566.71
2019-02-25T18:13:06.734Z,100563.05
2019-02-25T18:15:33.448Z,100567.38
2019-02-25T18:18:00.707Z,100565.53
2019-02-25T18:20:27.928Z,100561.14
2019-02-25T18:22:55.033Z,100561.17
2019-02-25T18:25:22.327Z,100567.44
2019-02-25T18:27:50.037Z,100574.44
2019-02-25T18:30:26.783Z,100571.41
2019-02-25T18:32:55.206Z,100570.25
2019-02-25T18:35:23.511Z,100567.78
2019-02-25T18:37:50.282Z,100571.72
2019-02-25T18:40:18.993Z,100574.85
2019-02-25T18:42:46.335Z,100571.39
2019-02-25T18:45:18.438Z,100580.72
2019-02-25T18:47:46.363Z,100573.95
2019-02-25T18:50:24.043Z,100568.66
2019-02-25T18:52:52.910Z,100572.17
2019-02-25T18:55:25.320Z,100569.14
2019-02-25T18:57:53.836Z,100571.32
2019-02-25T19:00:36.065Z,100575.27
2019-02-25T19:03:04.885Z,100575.09
2019-02-25T19:05:34.303Z,100577.62
2019-02-25T19:08:12.036Z,100576.90
2019-02-25T19:10:36.959Z,100574.56
2019-02-25T19:13:04.764Z,100573.42
2019-02-25T19:15:31.514Z,100578.27
2019-02-25T19:17:58.638Z,100573.64
2019-02-25T19:20:25.899Z,100585.66
2019-02-25T19:22:52.673Z,100585.95
2019-02-25T19:25:20.833Z,100587.45
2019-02-25T19:27:49.608Z,100591.75
2019-02-25T19:30:19.712Z,100587.66
2019-02-25T19:32:46.616Z,100596.36
2019-02-25T19:35:14.399Z,100600.37
2019-02-25T19:37:42.662Z,100597.95
2019-02-25T19:40:30.208Z,100600.84
2019-02-25T19:42:58.808Z,100601.62
2019-02-25T19:45:26.314Z,100603.97
2019-02-25T19:47:55.360Z,100605.53
2019-02-25T19:50:22.026Z,100598.66
2019-02-25T19:52:49.399Z,100600.73
2019-02-25T19:55:18.362Z,100607.89
2019-02-25T19:57:45.040Z,100604.43
2019-02-25T20:00:28.242Z,100598.44
2019-02-25T20:03:05.785Z,100597.06
2019-02-25T20:05:29.645Z,100593.05
2019-02-25T20:07:56.524Z,100589.09
2019-02-25T20:10:25.017Z,100585.23
2019-02-25T20:12:53.244Z,100594.75
2019-02-25T20:15:25.047Z,100593.23
2019-02-25T20:17:52.438Z,100594.48
2019-02-25T20:20:19.838Z,100591.09
2019-02-25T20:22:49.734Z,100594.55
2019-02-25T20:25:18.852Z,100596.03
2019-02-25T20:27:46.319Z,100600.47
2019-02-25T20:30:15.969Z,100602.34
2019-02-25T20:32:42.942Z,100601.75
2019-02-25T20:35:17.754Z,100603.25
2019-02-25T20:37:46.380Z,100609.67
2019-02-25T20:40:19.419Z,100611.44
2019-02-25T20:42:49.124Z,100610.92
2019-02-25T20:45:23.639Z,100606.17
2019-02-25T20:47:52.326Z,100605.85
2019-02-25T20:50:20.742Z,100606.51
2019-02-25T20:52:47.559Z,100603.40
2019-02-25T20:55:14.521Z,100600.84
2019-02-25T20:57:41.681Z,100601.53
2019-02-25T21:00:20.069Z,100601.60
2019-02-25T21:02:47.930Z,100603.06
2019-02-25T21:05:16.741Z,100596.27
2019-02-25T21:07:43.723Z,100596.48
2019-02-25T21:10:16.036Z,100598.59
2019-02-25T21:12:43.328Z,100594.95
2019-02-25T21:15:18.628Z,100597.95
2019-02-25T21:17:45.780Z,100601.09
2019-02-25T21:20:14.325Z,100600.42
2019-02-25T21:22:44.411Z,100606.86
2019-02-25T21:25:14.341Z,100599.58
2019-02-25T21:27:41.301Z,100602.27
2019-02-25T21:30:18.452Z,100599.45
2019-02-25T21:32:47.399Z,100592.57
2019-02-25T21:35:18.740Z,100596.16
2019-02-25T21:37:47.796Z,100592.36
2019-02-25T21:40:25.041Z,100604.61
2019-02-25T21:42:53.898Z,100605.48
2019-02-25T21:45:22.408Z,100613.27
2019-02-25T21:47:54.069Z,100602.41
2019-02-25T21:50:20.694Z,100606.01
2019-02-25T21:52:50.478Z,100597.72
2019-02-25T21:55:17.969Z,100593.30
2019-02-25T21:57:45.658Z,100591.26
2019-02-25T22:00:22.630Z,100588.27
2019-02-25T22:02:50.961Z,100587.91
2019-02-25T22:05:21.314Z,100585.03
2019-02-25T22:07:52.382Z,100587.32
2019-02-25T22:10:18.237Z,100574.30
2019-02-25T22:12:45.413Z,100573.41
2019-02-25T22:15:15.892Z,100575.93
2019-02-25T22:17:44.062Z,100574.58
2019-02-25T22:20:14.356Z,100572.26
2019-02-25T22:22:41.554Z,100568.65
2019-02-25T22:25:20.521Z,100572.08
2019-02-25T22:27:47.480Z,100574.10
2019-02-25T22:30:15.550Z,100578.45
2019-02-25T22:32:43.186Z,100571.87
2019-02-25T22:35:14.354Z,100568.79
2019-02-25T22:37:44.285Z,100572.05
2019-02-25T22:40:12.423Z,100573.92
2019-02-25T22:42:40.069Z,100568.49
2019-02-25T22:45:12.419Z,100571.70
2019-02-25T22:47:40.730Z,100572.63
2019-02-25T22:50:12.821Z,100585.67
2019-02-25T22:52:39.561Z,100586.37
2019-02-25T22:55:12.924Z,100582.41
2019-02-25T22:57:41.718Z,100584.14
2019-02-25T23:00:24.153Z,100586.39
2019-02-25T23:02:52.814Z,100580.20
2019-02-25T23:05:21.270Z,100584.10
2019-02-25T23:07:50.227Z,100582.77
2019-02-25T23:10:19.681Z,100583.75
2019-02-25T23:12:46.281Z,100579.27
2019-02-25T23:15:13.445Z,100572.86
2019-02-25T23:17:42.353Z,100575.11
2019-02-25T23:20:10.330Z,100571.76
2019-02-25T23:22:38.781Z,100571.03
2019-02-25T23:25:09.977Z,100576.27
2019-02-25T23:27:38.793Z,100578.87
2019-02-25T23:30:10.538Z,100581.65
2019-02-25T23:32:39.418Z,100583.22
2019-02-25T23:35:09.380Z,100579.47
2019-02-25T23:37:35.565Z,100587.27
2019-02-25T23:40:07.228Z,100579.59
2019-02-25T23:42:37.286Z,100580.56
2019-02-25T23:45:12.785Z,100577.95
2019-02-25T23:47:39.986Z,100575.56
2019-02-25T23:50:13.807Z,100576.91
2019-02-25T23:52:40.963Z,100572.56
2019-02-25T23:55:14.283Z,100572.55
2019-02-25T23:57:40.206Z,100571.78
